createdAt,value
2022-12-18T00:02:12.983Z,41.38
2022-12-18T00:04:39.631Z,44.80
2022-12-18T00:07:06.138Z,43.65
2022-12-18T00:09:40.120Z,50.15
2022-12-18T00:14:45.006Z,44.73
2022-12-18T00:17:11.472Z,39.90
2022-12-18T00:19:38.018Z,41.60
2022-12-18T00:22:04.470Z,46.97
2022-12-18T00:24:31.100Z,58.15
2022-12-18T00:26:57.548Z,67.55
2022-12-18T00:29:24.125Z,65.15
2022-12-18T00:31:50.715Z,56.33
2022-12-18T00:34:17.351Z,63.22
2022-12-18T00:36:43.853Z,64.57
2022-12-18T00:39:11.892Z,61.85
2022-12-18T00:41:57.494Z,65.47
2022-12-18T00:44:23.973Z,74.28
2022-12-18T00:46:50.379Z,65.18
2022-12-18T00:49:19.712Z,59.63
2022-12-18T00:51:46.918Z,58.40
2022-12-18T00:54:13.499Z,53.60
2022-12-18T00:56:48.446Z,54.17
2022-12-18T00:59:15.695Z,53.83
2022-12-18T01:04:09.170Z,49.40
2022-12-18T01:11:29.143Z,48.10
2022-12-18T01:13:56.053Z,44.60
2022-12-18T01:18:54.553Z,56.80
2022-12-18T01:21:23.200Z,62.27
2022-12-18T01:23:53.166Z,60.97
2022-12-18T01:26:20.050Z,60.57
2022-12-18T01:36:06.556Z,76.80
2022-12-18T01:38:36.084Z,57.42
2022-12-18T01:41:05.984Z,54.60
2022-12-18T01:43:46.015Z,52.57
2022-12-18T01:46:13.401Z,46.57
2022-12-18T01:48:40.873Z,46.67
2022-12-18T01:51:10.544Z,49.87
2022-12-18T01:53:40.473Z,46.27
2022-12-18T01:56:08.069Z,52.50
2022-12-18T01:58:40.607Z,41.57
2022-12-18T02:01:07.192Z,39.67
2022-12-18T02:03:33.758Z,38.08
2022-12-18T02:06:20.579Z,48.08
2022-12-18T02:08:59.596Z,42.47
2022-12-18T02:11:41.191Z,38.73
2022-12-18T02:14:17.832Z,45.07
2022-12-18T02:19:53.790Z,43.37
2022-12-18T02:22:40.771Z,40.30
2022-12-18T02:25:32.696Z,35.57
2022-12-18T02:28:02.996Z,39.70
2022-12-18T02:30:34.693Z,46.40
2022-12-18T02:33:05.143Z,44.47
2022-12-18T02:35:35.263Z,44.77
2022-12-18T02:38:04.209Z,38.80
2022-12-18T02:40:32.177Z,37.13
2022-12-18T02:43:24.764Z,41.53
2022-12-18T02:45:55.337Z,37.40
2022-12-18T02:48:26.766Z,39.10
2022-12-18T02:51:15.933Z,46.60
2022-12-18T02:53:54.323Z,37.40
2022-12-18T02:56:31.876Z,42.40
2022-12-18T02:59:24.936Z,41.67
2022-12-18T03:02:30.164Z,40.03
2022-12-18T03:05:21.724Z,47.00
2022-12-18T03:08:23.340Z,46.80
2022-12-18T03:11:01.397Z,38.83
2022-12-18T03:13:53.852Z,38.20
2022-12-18T03:16:29.387Z,43.03
2022-12-18T03:19:00.931Z,38.37
2022-12-18T03:21:41.681Z,42.83
2022-12-18T03:24:10.389Z,38.07
2022-12-18T03:26:41.855Z,34.43
2022-12-18T03:29:14.110Z,38.80
2022-12-18T03:31:43.556Z,44.57
2022-12-18T03:34:28.082Z,38.47
2022-12-18T03:36:54.568Z,45.33
2022-12-18T03:39:21.468Z,34.38
2022-12-18T03:41:53.688Z,37.63
2022-12-18T03:44:40.930Z,39.50
2022-12-18T03:47:25.855Z,37.30
2022-12-18T03:50:08.317Z,37.17
2022-12-18T03:52:43.669Z,34.53
2022-12-18T03:55:11.846Z,34.50
2022-12-18T03:57:39.911Z,38.83
2022-12-18T04:00:13.816Z,35.37
2022-12-18T04:02:45.333Z,33.73
2022-12-18T04:05:14.134Z,36.23
2022-12-18T04:07:41.337Z,34.33
2022-12-18T04:10:09.851Z,33.47
2022-12-18T04:12:38.709Z,33.43
2022-12-18T04:15:06.289Z,37.50
2022-12-18T04:17:32.864Z,37.83
2022-12-18T04:19:59.360Z,36.22
2022-12-18T04:22:25.914Z,35.63
2022-12-18T04:24:52.469Z,34.58
2022-12-18T04:27:19.160Z,36.35
2022-12-18T04:29:45.828Z,29.83
2022-12-18T04:32:12.327Z,31.70
2022-12-18T04:34:38.852Z,33.35
2022-12-18T04:37:05.376Z,35.92
2022-12-18T04:39:31.931Z,30.50
2022-12-18T04:41:58.407Z,34.47
2022-12-18T04:44:27.946Z,30.55
2022-12-18T04:46:54.470Z,38.57
2022-12-18T04:49:21.047Z,31.08
2022-12-18T04:51:47.480Z,35.20
2022-12-18T04:54:14.172Z,35.28
2022-12-18T04:59:07.333Z,26.53
2022-12-18T05:01:35.051Z,33.33
2022-12-18T05:04:02.937Z,28.87
2022-12-18T05:06:29.607Z,33.97
2022-12-18T05:08:56.291Z,34.40
2022-12-18T05:11:22.983Z,34.45
2022-12-18T05:13:49.572Z,36.30
2022-12-18T05:16:16.312Z,34.60
2022-12-18T05:21:09.924Z,32.53
2022-12-18T05:26:05.512Z,37.57
2022-12-18T05:28:35.266Z,38.50
2022-12-18T05:31:03.893Z,34.97
2022-12-18T05:33:33.071Z,32.40
2022-12-18T05:36:04.267Z,32.03
2022-12-18T05:38:33.149Z,40.33
2022-12-18T05:40:59.875Z,35.13
2022-12-18T05:45:54.423Z,32.87
2022-12-18T05:48:22.010Z,34.23
2022-12-18T05:50:50.984Z,34.07
2022-12-18T05:53:20.482Z,32.93
2022-12-18T05:55:47.887Z,32.20
2022-12-18T05:58:15.363Z,30.87
2022-12-18T06:00:45.639Z,32.10
2022-12-18T06:03:13.536Z,37.70
2022-12-18T06:05:42.416Z,37.03
2022-12-18T06:08:09.335Z,36.73
2022-12-18T06:10:36.322Z,38.50
2022-12-18T06:13:02.972Z,41.57
2022-12-18T06:15:29.490Z,35.63
2022-12-18T06:17:55.966Z,40.47
2022-12-18T06:20:22.771Z,36.20
2022-12-18T06:22:49.543Z,38.90
2022-12-18T06:25:16.575Z,41.33
2022-12-18T06:27:43.163Z,37.80
2022-12-18T06:30:11.121Z,39.43
2022-12-18T06:32:37.787Z,41.80
2022-12-18T06:35:04.942Z,37.63
2022-12-18T06:37:32.489Z,45.80
2022-12-18T06:39:59.057Z,47.43
2022-12-18T06:42:25.969Z,40.72
2022-12-18T06:44:52.618Z,45.23
2022-12-18T06:47:19.786Z,49.78
2022-12-18T06:49:46.308Z,52.17
2022-12-18T06:52:12.933Z,46.17
2022-12-18T06:54:39.429Z,47.63
2022-12-18T06:57:05.949Z,46.17
2022-12-18T06:59:32.460Z,48.53
2022-12-18T07:01:59.094Z,43.92
2022-12-18T07:04:31.343Z,43.00
2022-12-18T07:06:58.400Z,39.17
2022-12-18T07:09:25.470Z,45.23
2022-12-18T07:11:52.736Z,54.03
2022-12-18T07:14:19.232Z,51.95
2022-12-18T07:16:45.792Z,42.40
2022-12-18T07:19:12.318Z,48.97
2022-12-18T07:21:38.810Z,44.65
2022-12-18T07:24:06.073Z,38.97
2022-12-18T07:26:32.786Z,43.83
2022-12-18T07:31:26.791Z,44.03
2022-12-18T07:33:53.559Z,44.10
2022-12-18T07:38:51.278Z,42.60
2022-12-18T07:41:18.060Z,47.00
2022-12-18T07:46:14.861Z,42.93
2022-12-18T07:48:46.268Z,59.00
2022-12-18T07:51:18.318Z,50.37
2022-12-18T07:53:45.249Z,56.47
2022-12-18T07:58:57.912Z,63.33
2022-12-18T08:01:24.846Z,57.80
2022-12-18T08:03:52.808Z,52.60
2022-12-18T08:08:49.854Z,41.23
2022-12-18T08:11:16.996Z,36.27
2022-12-18T08:13:43.657Z,39.85
2022-12-18T08:18:38.543Z,31.07
2022-12-18T08:21:11.980Z,39.73
2022-12-18T08:23:42.623Z,35.53
2022-12-18T08:26:10.286Z,33.63
2022-12-18T08:28:36.966Z,41.07
2022-12-18T08:31:03.689Z,41.50
2022-12-18T08:35:56.749Z,37.53
2022-12-18T08:38:24.243Z,39.97
2022-12-18T08:40:50.800Z,39.97
2022-12-18T08:43:35.937Z,39.35
2022-12-18T08:46:02.629Z,39.43
2022-12-18T08:48:29.187Z,41.33
2022-12-18T08:51:00.064Z,41.80
2022-12-18T08:53:32.709Z,44.83
2022-12-18T08:56:02.340Z,48.00
2022-12-18T08:58:28.812Z,46.53
2022-12-18T09:00:55.364Z,37.03
2022-12-18T09:03:23.675Z,43.75
2022-12-18T09:05:50.295Z,37.53
2022-12-18T09:08:16.802Z,36.10
2022-12-18T09:10:45.358Z,32.72
2022-12-18T09:13:13.022Z,34.40
2022-12-18T09:15:44.164Z,31.50
2022-12-18T09:18:10.716Z,33.77
2022-12-18T09:20:38.274Z,33.35
2022-12-18T09:23:05.135Z,30.87
2022-12-18T09:25:34.071Z,32.30
2022-12-18T09:28:01.215Z,28.70
2022-12-18T09:30:28.501Z,34.43
2022-12-18T09:37:48.623Z,34.67
2022-12-18T09:40:21.344Z,31.60
2022-12-18T09:43:00.353Z,32.63
2022-12-18T09:45:27.234Z,34.77
2022-12-18T09:47:56.497Z,37.85
2022-12-18T09:50:22.934Z,35.87
2022-12-18T09:52:53.520Z,27.52
2022-12-18T09:55:35.145Z,36.07
2022-12-18T09:58:32.774Z,38.67
2022-12-18T10:00:59.490Z,33.95
2022-12-18T10:03:26.586Z,39.30
2022-12-18T10:06:19.516Z,34.10
2022-12-18T10:09:04.839Z,38.03
2022-12-18T10:11:49.436Z,36.17
2022-12-18T10:14:37.728Z,38.17
2022-12-18T10:17:13.237Z,40.97
2022-12-18T10:19:50.290Z,39.00
2022-12-18T10:22:43.104Z,38.67
2022-12-18T10:25:22.704Z,36.60
2022-12-18T10:27:52.699Z,36.27
2022-12-18T10:30:22.082Z,33.63
2022-12-18T10:32:48.586Z,36.37
2022-12-18T10:35:25.418Z,37.47
2022-12-18T10:40:29.149Z,32.50
2022-12-18T10:45:43.197Z,31.97
2022-12-18T10:48:21.856Z,36.63
2022-12-18T10:53:38.598Z,37.27
2022-12-18T10:56:07.537Z,37.63
2022-12-18T10:58:39.474Z,36.93
2022-12-18T11:01:12.380Z,33.20
2022-12-18T11:03:46.182Z,34.07
2022-12-18T11:06:25.417Z,35.80
2022-12-18T11:08:59.629Z,34.03
2022-12-18T11:11:26.667Z,35.43
2022-12-18T11:17:23.812Z,33.87
2022-12-18T11:19:40.916Z,35.67
2022-12-18T11:22:31.379Z,37.53
2022-12-18T11:25:34.440Z,34.97
2022-12-18T11:28:05.455Z,36.67
2022-12-18T11:30:37.323Z,31.67
2022-12-18T11:33:12.088Z,34.87
2022-12-18T11:35:44.670Z,32.87
2022-12-18T11:38:30.651Z,35.03
2022-12-18T11:41:22.099Z,34.63
2022-12-18T11:43:56.950Z,38.43
2022-12-18T11:46:37.221Z,32.20
2022-12-18T11:49:29.623Z,36.50
2022-12-18T11:52:23.907Z,38.47
2022-12-18T11:54:56.283Z,33.00
2022-12-18T11:57:35.927Z,34.93
2022-12-18T12:00:02.528Z,34.73
2022-12-18T12:02:57.441Z,34.53
2022-12-18T12:05:39.257Z,34.17
2022-12-18T12:08:08.766Z,30.00
2022-12-18T12:11:07.189Z,32.20
2022-12-18T12:13:55.608Z,32.43
2022-12-18T12:16:30.865Z,27.87
2022-12-18T12:19:31.634Z,33.37
2022-12-18T12:22:28.479Z,30.50
2022-12-18T12:25:04.472Z,28.10
2022-12-18T12:27:43.079Z,29.63
2022-12-18T12:30:19.658Z,28.40
2022-12-18T12:33:06.202Z,30.67
2022-12-18T12:35:47.756Z,26.38
2022-12-18T12:38:25.033Z,29.33
2022-12-18T12:41:03.279Z,29.70
2022-12-18T12:43:40.360Z,28.23
2022-12-18T12:46:12.552Z,22.38
2022-12-18T12:48:50.780Z,30.87
2022-12-18T12:51:21.920Z,27.70
2022-12-18T12:53:50.058Z,28.73
2022-12-18T12:56:20.239Z,26.95
2022-12-18T12:59:03.679Z,26.70
2022-12-18T13:01:39.446Z,26.57
2022-12-18T13:04:30.731Z,31.43
2022-12-18T13:07:21.417Z,30.00
2022-12-18T13:16:09.134Z,29.00
2022-12-18T13:18:36.280Z,27.07
2022-12-18T13:21:03.826Z,30.13
2022-12-18T13:23:41.630Z,31.80
2022-12-18T13:26:11.763Z,29.33
2022-12-18T13:28:47.301Z,29.27
2022-12-18T13:31:42.094Z,33.50
2022-12-18T13:34:27.761Z,30.43
2022-12-18T13:36:57.496Z,31.50
2022-12-18T13:39:35.863Z,33.53
2022-12-18T13:42:05.641Z,31.73
2022-12-18T13:47:38.456Z,40.57
2022-12-18T13:50:47.996Z,37.17
2022-12-18T13:53:25.134Z,40.83
2022-12-18T13:55:52.971Z,44.27
2022-12-18T13:58:19.905Z,40.73
2022-12-18T14:00:46.751Z,37.28
2022-12-18T14:03:27.371Z,38.93
2022-12-18T14:06:02.105Z,49.63
2022-12-18T14:08:34.820Z,35.10
2022-12-18T14:11:02.497Z,31.50
2022-12-18T14:13:33.302Z,31.20
2022-12-18T14:16:03.854Z,29.70
2022-12-18T14:18:39.897Z,24.47
2022-12-18T14:21:07.882Z,26.40
2022-12-18T14:23:42.084Z,27.93
2022-12-18T14:26:30.608Z,25.97
2022-12-18T14:28:58.999Z,25.90
2022-12-18T14:31:27.914Z,31.80
2022-12-18T14:33:54.653Z,26.60
2022-12-18T14:36:29.991Z,26.42
2022-12-18T14:38:58.483Z,24.87
2022-12-18T14:41:26.573Z,30.07
2022-12-18T14:47:03.041Z,25.77
2022-12-18T14:49:35.261Z,27.15
2022-12-18T14:52:07.468Z,24.80
2022-12-18T14:54:38.413Z,26.90
2022-12-18T14:57:36.692Z,26.13
2022-12-18T15:00:09.071Z,28.33
2022-12-18T15:02:37.316Z,28.43
2022-12-18T15:05:19.985Z,26.37
2022-12-18T15:07:57.967Z,24.20
2022-12-18T15:10:27.966Z,27.37
2022-12-18T15:12:57.249Z,29.30
2022-12-18T15:15:38.784Z,25.43
2022-12-18T15:18:15.115Z,29.57
2022-12-18T15:24:19.196Z,29.93
2022-12-18T15:26:45.793Z,26.23
2022-12-18T15:29:24.498Z,29.48
2022-12-18T15:32:21.103Z,28.23
2022-12-18T15:34:47.610Z,30.07
2022-12-18T15:37:14.138Z,28.17
2022-12-18T15:39:40.729Z,28.33
2022-12-18T15:42:28.763Z,29.58
2022-12-18T15:44:55.322Z,31.43
2022-12-18T15:47:21.797Z,30.13
2022-12-18T15:49:48.374Z,35.90
2022-12-18T15:52:15.034Z,28.67
2022-12-18T15:55:00.107Z,29.60
2022-12-18T15:57:27.394Z,31.93
2022-12-18T15:59:59.299Z,32.27
2022-12-18T16:02:26.732Z,30.57
2022-12-18T16:04:53.748Z,30.20
2022-12-18T16:07:25.137Z,34.58
2022-12-18T16:09:52.849Z,27.67
2022-12-18T16:12:23.341Z,31.92
2022-12-18T16:14:49.981Z,32.17
2022-12-18T16:17:16.668Z,30.80
2022-12-18T16:22:23.116Z,34.90
2022-12-18T16:24:50.942Z,29.43
2022-12-18T16:27:17.911Z,29.30
2022-12-18T16:34:43.300Z,36.80
2022-12-18T16:37:11.501Z,28.57
2022-12-18T16:39:39.357Z,32.30
2022-12-18T16:42:19.792Z,28.97
2022-12-18T16:44:47.336Z,33.07
2022-12-18T16:47:15.365Z,33.23
2022-12-18T16:49:42.819Z,30.03
2022-12-18T16:52:09.427Z,37.23
2022-12-18T16:54:36.758Z,28.95
2022-12-18T16:57:05.530Z,33.07
2022-12-18T16:59:32.751Z,32.70
2022-12-18T17:01:59.443Z,34.10
2022-12-18T17:04:26.224Z,31.80
2022-12-18T17:06:53.956Z,33.83
2022-12-18T17:09:25.374Z,28.93
2022-12-18T17:11:53.709Z,33.53
2022-12-18T17:14:23.480Z,34.87
2022-12-18T17:17:07.394Z,33.43
2022-12-18T17:19:36.920Z,30.73
2022-12-18T17:22:04.412Z,35.40
2022-12-18T17:24:34.787Z,29.90
2022-12-18T17:27:02.288Z,35.23
2022-12-18T17:29:28.852Z,28.85
2022-12-18T17:31:55.406Z,40.33
2022-12-18T17:34:24.194Z,33.47
2022-12-18T17:39:19.683Z,30.35
2022-12-18T17:41:46.604Z,32.30
2022-12-18T17:46:39.764Z,32.58
2022-12-18T17:49:06.433Z,34.70
2022-12-18T17:51:33.233Z,32.90
2022-12-18T17:54:00.021Z,33.33
2022-12-18T17:56:26.890Z,31.60
2022-12-18T17:58:53.783Z,36.50
2022-12-18T18:01:23.694Z,36.78
2022-12-18T18:03:52.866Z,34.23
2022-12-18T18:06:20.564Z,32.83
2022-12-18T18:08:47.148Z,35.22
2022-12-18T18:11:38.080Z,34.03
2022-12-18T18:14:15.857Z,34.87
2022-12-18T18:16:44.882Z,33.03
2022-12-18T18:19:14.570Z,34.67
2022-12-18T18:21:43.876Z,30.87
2022-12-18T18:24:13.107Z,32.33
2022-12-18T18:26:41.652Z,29.53
2022-12-18T18:29:08.971Z,33.40
2022-12-18T18:31:41.297Z,30.73
2022-12-18T18:34:08.753Z,35.40
2022-12-18T18:36:35.311Z,33.27
2022-12-18T18:39:02.143Z,35.38
2022-12-18T18:41:30.011Z,32.30
2022-12-18T18:43:57.831Z,36.37
2022-12-18T18:46:25.519Z,32.37
2022-12-18T18:48:52.100Z,34.40
2022-12-18T18:51:21.464Z,30.67
2022-12-18T18:53:51.114Z,33.13
2022-12-18T18:59:07.677Z,35.73
2022-12-18T19:01:34.219Z,34.58
2022-12-18T19:04:04.208Z,35.28
2022-12-18T19:06:31.595Z,31.57
2022-12-18T19:09:01.401Z,31.57
2022-12-18T19:11:46.927Z,36.77
2022-12-18T19:14:15.110Z,32.37
2022-12-18T19:16:42.882Z,34.53
2022-12-18T19:19:09.985Z,33.43
2022-12-18T19:21:38.176Z,34.45
2022-12-18T19:24:05.593Z,38.23
2022-12-18T19:26:32.260Z,39.57
2022-12-18T19:29:03.923Z,34.63
2022-12-18T19:31:35.532Z,30.93
2022-12-18T19:34:04.979Z,34.60
2022-12-18T19:36:32.535Z,34.57
2022-12-18T19:39:01.524Z,38.33
2022-12-18T19:41:32.014Z,34.00
2022-12-18T19:44:00.131Z,34.70
2022-12-18T19:46:28.758Z,33.83
2022-12-18T19:48:55.248Z,35.85
2022-12-18T19:53:58.185Z,34.33
2022-12-18T19:56:28.664Z,31.93
2022-12-18T19:58:55.262Z,35.37
2022-12-18T20:01:24.026Z,32.45
2022-12-18T20:03:52.409Z,32.30
2022-12-18T20:06:46.081Z,29.97
2022-12-18T20:09:12.641Z,30.33
2022-12-18T20:11:41.892Z,29.35
2022-12-18T20:14:13.764Z,34.07
2022-12-18T20:16:41.080Z,26.33
2022-12-18T20:19:08.670Z,29.07
2022-12-18T20:21:36.027Z,31.03
2022-12-18T20:24:02.681Z,30.23
2022-12-18T20:26:29.688Z,30.63
2022-12-18T20:33:49.883Z,26.47
2022-12-18T20:36:22.636Z,28.87
2022-12-18T20:38:55.700Z,30.27
2022-12-18T20:41:25.695Z,28.43
2022-12-18T20:43:53.885Z,27.67
2022-12-18T20:46:20.860Z,26.95
2022-12-18T20:48:48.201Z,29.27
2022-12-18T20:51:20.076Z,27.20
2022-12-18T20:53:47.314Z,27.03
2022-12-18T20:56:21.322Z,32.47
2022-12-18T20:58:49.169Z,31.37
2022-12-18T21:01:18.833Z,26.60
2022-12-18T21:03:46.137Z,30.20
2022-12-18T21:06:15.359Z,25.23
2022-12-18T21:08:42.119Z,30.73
2022-12-18T21:11:35.736Z,30.30
2022-12-18T21:14:03.224Z,32.80
2022-12-18T21:16:30.009Z,27.50
2022-12-18T21:18:56.525Z,31.23
2022-12-18T21:21:27.017Z,31.87
2022-12-18T21:23:54.638Z,30.77
2022-12-18T21:26:26.642Z,33.57
2022-12-18T21:28:58.938Z,29.13
2022-12-18T21:31:29.310Z,30.77
2022-12-18T21:34:01.813Z,31.80
2022-12-18T21:36:29.615Z,34.70
2022-12-18T21:38:57.075Z,31.10
2022-12-18T21:41:43.845Z,36.47
2022-12-18T21:44:12.907Z,31.88
2022-12-18T21:46:42.325Z,37.10
2022-12-18T21:49:09.985Z,33.87
2022-12-18T21:51:37.142Z,37.97
2022-12-18T21:54:03.790Z,37.97
2022-12-18T21:56:50.784Z,38.58
2022-12-18T21:59:20.142Z,40.90
2022-12-18T22:01:47.641Z,41.17
2022-12-18T22:04:15.904Z,39.17
2022-12-18T22:06:43.290Z,37.10
2022-12-18T22:09:12.151Z,35.93
2022-12-18T22:11:38.699Z,37.83
2022-12-18T22:14:05.283Z,35.78
2022-12-18T22:16:31.894Z,35.65
2022-12-18T22:18:58.435Z,38.60
2022-12-18T22:21:29.252Z,40.35
2022-12-18T22:24:00.152Z,40.03
2022-12-18T22:26:28.410Z,36.17
2022-12-18T22:29:13.447Z,41.40
2022-12-18T22:31:40.719Z,37.83
2022-12-18T22:34:08.258Z,38.40
2022-12-18T22:36:37.743Z,36.93
2022-12-18T22:39:07.123Z,38.40
2022-12-18T22:41:33.786Z,39.07
2022-12-18T22:44:00.330Z,36.13
2022-12-18T22:46:27.267Z,38.95
2022-12-18T22:51:20.771Z,34.10
2022-12-18T22:53:47.785Z,35.50
2022-12-18T22:56:21.143Z,38.93
2022-12-18T22:58:51.767Z,36.10
2022-12-18T23:01:21.883Z,37.20
2022-12-18T23:06:25.582Z,36.97
2022-12-18T23:08:55.961Z,34.70
2022-12-18T23:11:22.748Z,37.33
2022-12-18T23:13:49.243Z,38.47
2022-12-18T23:16:18.164Z,34.78
2022-12-18T23:18:45.540Z,36.53
2022-12-18T23:21:18.374Z,38.00
2022-12-18T23:23:45.421Z,35.83
2022-12-18T23:26:20.686Z,35.92
2022-12-18T23:28:48.264Z,39.60
2022-12-18T23:31:19.031Z,35.40
2022-12-18T23:33:47.196Z,41.47
2022-12-18T23:36:14.508Z,37.80
2022-12-18T23:41:10.676Z,42.23
2022-12-18T23:43:38.313Z,40.97
2022-12-18T23:46:23.055Z,37.67
2022-12-18T23:48:50.321Z,39.80
2022-12-18T23:51:18.171Z,37.43
2022-12-18T23:53:44.943Z,41.20
2022-12-18T23:56:13.724Z,37.55
2022-12-18T23:58:41.193Z,41.87
